createdAt,value
2018-08-06T00:01:21.031Z,64.25
2018-08-06T00:03:23.254Z,62.45
2018-08-06T00:05:25.508Z,64.92
2018-08-06T00:07:27.774Z,60.92
2018-08-06T00:09:30.029Z,55.08
2018-08-06T00:11:32.260Z,59.48
2018-08-06T00:13:34.512Z,55.35
2018-08-06T00:15:36.765Z,53.52
2018-08-06T00:17:38.973Z,55.03
2018-08-06T00:19:41.193Z,84.90
2018-08-06T00:21:43.434Z,71.50
2018-08-06T00:23:45.695Z,192.55
2018-08-06T00:25:47.928Z,189.87
2018-08-06T00:27:50.170Z,207.40
2018-08-06T00:29:52.418Z,162.82
2018-08-06T00:31:54.652Z,146.13
2018-08-06T00:33:56.882Z,128.53
2018-08-06T00:35:59.100Z,151.72
2018-08-06T00:38:01.360Z,142.80
2018-08-06T00:40:03.628Z,135.35
2018-08-06T00:42:05.888Z,128.15
2018-08-06T00:44:08.120Z,126.80
2018-08-06T00:46:10.357Z,148.43
2018-08-06T00:48:12.601Z,118.90
2018-08-06T00:50:14.829Z,112.92
2018-08-06T00:52:17.058Z,152.97
2018-08-06T00:54:19.316Z,194.17
2018-08-06T00:56:21.552Z,158.60
2018-08-06T00:58:23.771Z,158.37
2018-08-06T01:00:26.026Z,189.40
2018-08-06T01:02:28.290Z,158.47
2018-08-06T01:04:30.544Z,172.75
2018-08-06T01:06:32.777Z,196.78
2018-08-06T01:08:35.013Z,179.82
2018-08-06T01:10:37.271Z,192.55
2018-08-06T01:12:39.544Z,165.25
2018-08-06T01:14:41.759Z,175.65
2018-08-06T01:16:43.989Z,156.15
2018-08-06T01:18:46.251Z,148.95
2018-08-06T01:20:48.484Z,163.90
2018-08-06T01:22:50.731Z,155.87
2018-08-06T01:24:52.971Z,157.50
2018-08-06T01:26:55.228Z,140.18
2018-08-06T01:28:57.445Z,123.65
2018-08-06T01:30:59.683Z,120.53
2018-08-06T01:33:02.132Z,139.22
2018-08-06T01:35:04.360Z,142.40
2018-08-06T01:37:06.612Z,130.15
2018-08-06T01:39:08.847Z,124.62
2018-08-06T01:41:11.080Z,128.25
2018-08-06T01:43:13.338Z,122.55
2018-08-06T01:45:15.575Z,120.15
2018-08-06T01:47:17.806Z,113.25
2018-08-06T01:49:20.022Z,111.68
2018-08-06T01:51:22.259Z,107.83
2018-08-06T01:53:24.497Z,104.40
2018-08-06T01:55:26.755Z,101.40
2018-08-06T01:57:29.007Z,108.27
2018-08-06T01:59:31.223Z,97.72
2018-08-06T02:01:33.483Z,103.65
2018-08-06T02:03:35.721Z,108.47
2018-08-06T02:05:37.987Z,102.58
2018-08-06T02:07:40.205Z,91.22
2018-08-06T02:09:42.444Z,101.35
2018-08-06T02:11:44.702Z,97.17
2018-08-06T02:13:46.927Z,92.17
2018-08-06T02:15:49.153Z,89.60
2018-08-06T02:17:51.409Z,93.20
2018-08-06T02:19:53.633Z,90.55
2018-08-06T02:21:55.879Z,87.25
2018-08-06T02:23:58.128Z,85.47
2018-08-06T02:26:00.351Z,91.75
2018-08-06T02:28:02.569Z,87.90
2018-08-06T02:30:04.811Z,78.75
2018-08-06T02:32:07.042Z,81.65
2018-08-06T02:34:09.279Z,80.45
2018-08-06T02:36:11.505Z,78.35
2018-08-06T02:38:13.748Z,80.65
2018-08-06T02:40:15.964Z,71.92
2018-08-06T02:42:18.219Z,74.35
2018-08-06T02:44:20.470Z,68.30
2018-08-06T02:46:22.688Z,74.72
2018-08-06T02:48:24.916Z,71.37
2018-08-06T02:50:27.170Z,60.75
2018-08-06T02:52:29.376Z,64.00
2018-08-06T02:54:31.618Z,67.95
2018-08-06T02:56:33.855Z,64.42
2018-08-06T02:58:36.095Z,66.53
2018-08-06T03:00:38.320Z,59.42
2018-08-06T03:02:40.561Z,65.08
2018-08-06T03:04:42.787Z,61.85
2018-08-06T03:06:45.019Z,63.02
2018-08-06T03:08:47.256Z,60.73
2018-08-06T03:10:49.516Z,60.98
2018-08-06T03:12:51.729Z,59.15
2018-08-06T03:14:53.988Z,59.30
2018-08-06T03:16:56.256Z,59.00
2018-08-06T03:18:58.443Z,55.12
2018-08-06T03:21:00.672Z,55.10
2018-08-06T03:23:02.916Z,56.35
2018-08-06T03:25:05.127Z,53.40
2018-08-06T03:27:07.358Z,55.30
2018-08-06T03:29:09.596Z,54.50
2018-08-06T03:31:11.864Z,50.73
2018-08-06T03:33:14.078Z,48.92
2018-08-06T03:35:16.347Z,50.80
2018-08-06T03:37:18.565Z,44.38
2018-08-06T03:39:20.790Z,45.52
2018-08-06T03:41:23.042Z,45.85
2018-08-06T03:43:25.264Z,42.83
2018-08-06T03:45:27.494Z,45.88
2018-08-06T03:47:29.754Z,488.52
2018-08-06T03:49:31.976Z,49.60
2018-08-06T03:51:34.202Z,294.18
2018-08-06T03:53:36.460Z,205.85
2018-08-06T03:55:38.682Z,134.30
2018-08-06T03:57:40.906Z,97.90
2018-08-06T03:59:43.154Z,176.63
2018-08-06T04:01:45.372Z,146.82
2018-08-06T04:03:47.632Z,218.93
2018-08-06T04:05:49.871Z,261.07
2018-08-06T04:07:52.119Z,332.02
2018-08-06T04:09:54.374Z,397.02
2018-08-06T04:11:56.622Z,283.38
2018-08-06T04:13:58.876Z,273.20
2018-08-06T04:16:01.116Z,315.90
2018-08-06T04:18:03.356Z,474.35
2018-08-06T04:20:05.780Z,384.23
2018-08-06T04:22:08.056Z,479.42
2018-08-06T04:24:10.278Z,387.25
2018-08-06T04:26:12.538Z,539.85
2018-08-06T04:28:14.757Z,576.02
2018-08-06T04:30:17.008Z,573.10
2018-08-06T04:32:19.282Z,550.00
2018-08-06T04:34:21.529Z,478.05
2018-08-06T04:36:23.749Z,411.68
2018-08-06T04:38:26.031Z,621.60
2018-08-06T04:40:28.268Z,603.75
2018-08-06T04:42:30.548Z,609.85
2018-08-06T04:44:32.776Z,517.83
2018-08-06T04:46:35.022Z,691.17
2018-08-06T04:48:37.281Z,598.85
2018-08-06T04:50:39.514Z,683.85
2018-08-06T04:52:41.773Z,612.40
2018-08-06T04:54:43.996Z,665.40
2018-08-06T04:56:46.216Z,640.30
2018-08-06T04:58:48.492Z,652.23
2018-08-06T05:00:50.724Z,591.92
2018-08-06T05:02:52.976Z,591.83
2018-08-06T05:04:55.232Z,556.83
2018-08-06T05:06:57.485Z,551.35
2018-08-06T05:08:59.713Z,547.73
2018-08-06T05:11:01.964Z,540.15
2018-08-06T05:13:04.194Z,583.07
2018-08-06T05:15:06.426Z,518.35
2018-08-06T05:17:08.682Z,532.52
2018-08-06T05:19:10.944Z,519.70
2018-08-06T05:21:13.166Z,515.30
2018-08-06T05:23:15.396Z,487.70
2018-08-06T05:25:17.651Z,474.52
2018-08-06T05:27:19.887Z,494.13
2018-08-06T05:29:22.151Z,514.17
2018-08-06T05:31:24.415Z,491.73
2018-08-06T05:33:26.673Z,499.08
2018-08-06T05:35:28.895Z,498.85
2018-08-06T05:37:31.127Z,490.32
2018-08-06T05:39:33.383Z,471.80
2018-08-06T05:41:35.603Z,457.58
2018-08-06T05:43:37.847Z,435.00
2018-08-06T05:45:40.083Z,466.38
2018-08-06T05:47:42.347Z,451.63
2018-08-06T05:49:44.566Z,439.25
2018-08-06T05:51:46.804Z,432.68
2018-08-06T05:53:49.061Z,427.37
2018-08-06T05:55:51.295Z,418.15
2018-08-06T05:57:53.535Z,416.45
2018-08-06T05:59:55.792Z,403.38
2018-08-06T06:01:58.043Z,407.70
2018-08-06T06:04:00.307Z,400.70
2018-08-06T06:06:02.525Z,408.05
2018-08-06T06:08:04.755Z,394.70
2018-08-06T06:10:07.017Z,391.70
2018-08-06T06:12:09.265Z,391.90
2018-08-06T06:14:11.511Z,397.88
2018-08-06T06:16:13.739Z,391.23
2018-08-06T06:18:16.001Z,375.82
2018-08-06T06:20:18.236Z,383.30
2018-08-06T06:22:20.493Z,363.50
2018-08-06T06:24:22.725Z,378.75
2018-08-06T06:26:24.975Z,369.80
2018-08-06T06:28:27.223Z,368.07
2018-08-06T06:30:29.449Z,366.90
2018-08-06T06:32:31.699Z,359.30
2018-08-06T06:34:34.022Z,367.48
2018-08-06T06:36:36.187Z,366.55
2018-08-06T06:38:38.430Z,355.62
2018-08-06T06:40:40.649Z,355.95
2018-08-06T06:42:42.915Z,350.32
2018-08-06T06:44:45.183Z,348.80
2018-08-06T06:46:47.410Z,349.52
2018-08-06T06:48:49.647Z,346.23
2018-08-06T06:50:51.875Z,346.37
2018-08-06T06:52:54.128Z,340.20
2018-08-06T06:54:56.357Z,342.43
2018-08-06T06:56:58.621Z,334.00
2018-08-06T06:59:00.849Z,324.48
2018-08-06T07:01:03.097Z,336.43
2018-08-06T07:03:05.351Z,328.15
2018-08-06T07:05:07.559Z,330.87
2018-08-06T07:07:09.864Z,317.02
2018-08-06T07:09:12.098Z,319.52
2018-08-06T07:11:14.354Z,321.25
2018-08-06T07:13:16.593Z,317.23
2018-08-06T07:15:18.819Z,319.32
2018-08-06T07:17:21.071Z,321.32
2018-08-06T07:19:23.311Z,312.27
2018-08-06T07:21:25.526Z,302.38
2018-08-06T07:23:27.766Z,307.48
2018-08-06T07:25:29.995Z,310.55
2018-08-06T07:27:32.255Z,304.52
2018-08-06T07:29:34.514Z,294.55
2018-08-06T07:31:36.769Z,324.82
2018-08-06T07:33:39.076Z,305.77
2018-08-06T07:35:41.272Z,299.65
2018-08-06T07:37:43.510Z,289.90
2018-08-06T07:39:45.754Z,304.98
2018-08-06T07:41:47.994Z,296.05
2018-08-06T07:43:50.230Z,294.67
2018-08-06T07:45:52.475Z,288.52
2018-08-06T07:47:54.700Z,289.45
2018-08-06T07:49:57.012Z,294.10
2018-08-06T07:51:59.221Z,293.02
2018-08-06T07:54:01.452Z,290.35
2018-08-06T07:56:03.697Z,289.00
2018-08-06T07:58:05.935Z,295.57
2018-08-06T08:00:08.206Z,291.05
2018-08-06T08:02:10.449Z,302.55
2018-08-06T08:04:12.683Z,298.30
2018-08-06T08:06:14.971Z,291.55
2018-08-06T08:08:17.160Z,293.10
2018-08-06T08:10:19.478Z,293.33
2018-08-06T08:12:21.689Z,283.13
2018-08-06T08:14:23.918Z,289.65
2018-08-06T08:16:26.173Z,281.52
2018-08-06T08:18:28.404Z,279.70
2018-08-06T08:20:30.651Z,283.90
2018-08-06T08:22:32.900Z,281.25
2018-08-06T08:24:35.147Z,278.80
2018-08-06T08:26:37.398Z,282.50
2018-08-06T08:28:39.648Z,277.98
2018-08-06T08:30:41.881Z,273.77
2018-08-06T08:32:44.103Z,272.85
2018-08-06T08:34:46.360Z,264.52
2018-08-06T08:36:48.621Z,264.50
2018-08-06T08:38:50.865Z,261.02
2018-08-06T08:40:53.118Z,271.37
2018-08-06T08:42:55.333Z,259.02
2018-08-06T08:44:57.599Z,266.55
2018-08-06T08:46:59.838Z,263.35
2018-08-06T08:49:02.120Z,256.23
2018-08-06T08:51:04.356Z,263.20
2018-08-06T08:53:06.592Z,264.77
2018-08-06T08:55:08.860Z,256.43
2018-08-06T08:57:11.092Z,261.07
2018-08-06T08:59:13.323Z,257.50
2018-08-06T09:01:15.596Z,255.00
2018-08-06T09:03:17.809Z,250.93
2018-08-06T09:05:20.065Z,258.75
2018-08-06T09:07:22.368Z,252.57
2018-08-06T09:09:24.577Z,253.20
2018-08-06T09:11:26.830Z,246.95
2018-08-06T09:13:29.040Z,248.97
2018-08-06T09:15:31.268Z,255.45
2018-08-06T09:17:33.516Z,240.52
2018-08-06T09:19:35.775Z,241.68
2018-08-06T09:21:38.012Z,246.00
2018-08-06T09:23:40.233Z,247.42
2018-08-06T09:25:42.496Z,235.02
2018-08-06T09:27:44.731Z,238.32
2018-08-06T09:29:46.959Z,239.23
2018-08-06T09:31:49.221Z,237.00
2018-08-06T09:33:51.517Z,232.20
2018-08-06T09:35:53.738Z,231.70
2018-08-06T09:37:55.994Z,237.50
2018-08-06T09:39:58.221Z,233.35
2018-08-06T09:42:00.447Z,231.70
2018-08-06T09:44:03.585Z,232.60
2018-08-06T09:46:05.848Z,217.05
2018-08-06T09:48:08.073Z,229.57
2018-08-06T09:50:10.337Z,230.35
2018-08-06T09:52:12.607Z,222.67
2018-08-06T09:54:14.887Z,220.15
2018-08-06T09:56:17.109Z,223.87
2018-08-06T09:58:19.354Z,221.53
2018-08-06T10:00:21.601Z,218.20
2018-08-06T10:02:23.857Z,217.35
2018-08-06T10:04:26.093Z,220.12
2018-08-06T10:06:28.478Z,220.00
2018-08-06T10:08:30.571Z,218.35
2018-08-06T10:10:32.824Z,210.68
2018-08-06T10:12:35.053Z,206.75
2018-08-06T10:14:37.326Z,213.20
2018-08-06T10:16:39.579Z,209.35
2018-08-06T10:18:41.872Z,202.47
2018-08-06T10:20:44.083Z,201.02
2018-08-06T10:22:46.329Z,206.55
2018-08-06T10:24:48.574Z,200.87
2018-08-06T10:26:50.832Z,198.60
2018-08-06T10:28:53.112Z,199.95
2018-08-06T10:30:55.342Z,194.93
2018-08-06T10:32:57.567Z,197.72
2018-08-06T10:34:59.830Z,202.60
2018-08-06T10:37:02.053Z,197.90
2018-08-06T10:39:04.307Z,189.28
2018-08-06T10:41:06.521Z,191.30
2018-08-06T10:43:08.727Z,187.82
2018-08-06T10:45:10.962Z,190.07
2018-08-06T10:47:13.166Z,189.60
2018-08-06T10:49:15.415Z,189.40
2018-08-06T10:51:17.620Z,187.68
2018-08-06T10:53:19.956Z,178.05
2018-08-06T10:55:22.179Z,187.00
2018-08-06T10:57:24.431Z,179.60
2018-08-06T10:59:26.665Z,184.57
2018-08-06T11:01:28.867Z,178.97
2018-08-06T11:03:31.115Z,184.32
2018-08-06T11:05:33.341Z,181.65
2018-08-06T11:07:35.546Z,171.30
2018-08-06T11:09:37.801Z,173.50
2018-08-06T11:11:40.001Z,178.62
2018-08-06T11:13:42.259Z,173.62
2018-08-06T11:15:44.496Z,173.68
2018-08-06T11:17:46.691Z,169.50
2018-08-06T11:19:48.941Z,175.68
2018-08-06T11:21:51.163Z,167.85
2018-08-06T11:23:53.416Z,166.95
2018-08-06T11:25:55.617Z,169.45
2018-08-06T11:27:57.875Z,169.77
2018-08-06T11:30:00.105Z,165.45
2018-08-06T11:32:02.315Z,161.28
2018-08-06T11:34:04.559Z,160.67
2018-08-06T11:36:06.783Z,160.93
2018-08-06T11:38:09.059Z,165.03
2018-08-06T11:40:11.265Z,159.22
2018-08-06T11:42:13.486Z,161.82
2018-08-06T11:44:15.713Z,161.65
2018-08-06T11:46:17.920Z,160.70
2018-08-06T11:48:20.139Z,156.80
2018-08-06T11:50:22.379Z,157.15
2018-08-06T11:52:24.581Z,161.00
2018-08-06T11:54:26.816Z,153.15
2018-08-06T11:56:29.068Z,164.47
2018-08-06T11:58:31.276Z,155.87
2018-08-06T12:00:33.508Z,157.00
2018-08-06T12:02:35.730Z,152.45
2018-08-06T12:04:37.944Z,155.05
2018-08-06T12:06:40.172Z,151.40
2018-08-06T12:08:42.536Z,151.37
2018-08-06T12:10:44.616Z,150.55
2018-08-06T12:12:46.836Z,152.78
2018-08-06T12:14:49.092Z,149.93
2018-08-06T12:16:51.294Z,149.40
2018-08-06T12:18:53.502Z,143.00
2018-08-06T12:20:55.805Z,149.72
2018-08-06T12:22:57.982Z,152.38
2018-08-06T12:25:00.206Z,146.25
2018-08-06T12:27:02.405Z,150.42
2018-08-06T12:29:04.634Z,151.10
2018-08-06T12:31:06.854Z,145.17
2018-08-06T12:33:09.088Z,146.90
2018-08-06T12:35:11.322Z,144.30
2018-08-06T12:37:13.536Z,141.00
2018-08-06T12:39:15.774Z,142.65
2018-08-06T12:41:18.016Z,138.28
2018-08-06T12:43:20.220Z,136.70
2018-08-06T12:45:22.471Z,142.95
2018-08-06T12:47:24.682Z,142.50
2018-08-06T12:49:26.897Z,140.37
2018-08-06T12:51:29.124Z,139.60
2018-08-06T12:53:31.340Z,138.35
2018-08-06T12:55:33.585Z,137.30
2018-08-06T12:57:35.812Z,136.18
2018-08-06T12:59:38.016Z,136.55
2018-08-06T13:01:40.283Z,132.67
2018-08-06T13:03:42.524Z,138.40
2018-08-06T13:05:44.727Z,139.80
2018-08-06T13:07:46.951Z,133.03
2018-08-06T13:09:49.188Z,133.63
2018-08-06T13:11:51.403Z,134.97
2018-08-06T13:13:53.642Z,133.43
2018-08-06T13:15:55.875Z,133.30
2018-08-06T13:17:58.115Z,131.82
2018-08-06T13:20:00.307Z,129.35
2018-08-06T13:22:02.531Z,133.78
2018-08-06T13:24:04.790Z,133.18
2018-08-06T13:26:07.030Z,132.40
2018-08-06T13:28:09.262Z,127.50
2018-08-06T13:30:11.513Z,129.65
2018-08-06T13:32:13.732Z,126.42
2018-08-06T13:34:15.939Z,125.42
2018-08-06T13:36:18.196Z,127.42
2018-08-06T13:38:20.429Z,125.82
2018-08-06T13:40:22.637Z,124.90
2018-08-06T13:42:24.873Z,123.87
2018-08-06T13:44:27.159Z,126.07
2018-08-06T13:46:29.339Z,125.75
2018-08-06T13:48:31.571Z,125.07
2018-08-06T13:50:33.787Z,122.35
2018-08-06T13:52:36.042Z,122.13
2018-08-06T13:54:38.268Z,121.15
2018-08-06T13:56:40.496Z,120.80
2018-08-06T13:58:42.743Z,121.05
2018-08-06T14:00:44.955Z,120.97
2018-08-06T14:02:47.156Z,120.25
2018-08-06T14:04:49.509Z,119.08
2018-08-06T14:06:51.704Z,116.82
2018-08-06T14:08:53.923Z,117.22
2018-08-06T14:10:56.166Z,122.70
2018-08-06T14:12:58.372Z,121.17
2018-08-06T14:15:00.589Z,117.22
2018-08-06T14:17:02.820Z,115.62
2018-08-06T14:19:05.045Z,116.17
2018-08-06T14:21:07.269Z,115.37
2018-08-06T14:23:09.521Z,116.50
2018-08-06T14:25:11.757Z,117.82
2018-08-06T14:27:13.981Z,114.35
2018-08-06T14:29:16.225Z,112.22
2018-08-06T14:31:18.507Z,114.42
2018-08-06T14:33:20.687Z,115.65
2018-08-06T14:35:22.907Z,115.82
2018-08-06T14:37:25.141Z,110.78
2018-08-06T14:39:27.364Z,113.55
2018-08-06T14:41:29.610Z,112.85
2018-08-06T14:43:31.823Z,108.87
2018-08-06T14:45:34.035Z,111.55
2018-08-06T14:47:36.275Z,108.25
2018-08-06T14:49:38.493Z,110.95
2018-08-06T14:51:40.767Z,108.30
2018-08-06T14:53:42.953Z,108.15
2018-08-06T14:55:45.177Z,105.22
2018-08-06T14:57:47.411Z,107.52
2018-08-06T14:59:49.647Z,106.40
2018-08-06T15:01:51.883Z,107.70
2018-08-06T15:03:54.095Z,103.22
2018-08-06T15:05:56.327Z,105.30
2018-08-06T15:07:58.543Z,104.75
2018-08-06T15:10:00.771Z,103.75
2018-08-06T15:12:03.011Z,99.67
2018-08-06T15:14:05.231Z,106.25
2018-08-06T15:16:07.463Z,104.43
2018-08-06T15:18:09.685Z,101.45
2018-08-06T15:20:11.907Z,100.97
2018-08-06T15:22:14.142Z,102.80
2018-08-06T15:24:16.350Z,103.53
2018-08-06T15:26:18.553Z,101.72
2018-08-06T15:28:20.790Z,103.50
2018-08-06T15:30:23.045Z,99.92
2018-08-06T15:32:25.268Z,101.78
2018-08-06T15:34:27.483Z,102.53
2018-08-06T15:36:29.725Z,103.22
2018-08-06T15:38:31.942Z,102.72
2018-08-06T15:40:34.199Z,100.27
2018-08-06T15:42:36.409Z,100.80
2018-08-06T15:44:38.623Z,99.07
2018-08-06T15:46:40.863Z,100.00
2018-08-06T15:48:43.075Z,98.07
2018-08-06T15:50:45.297Z,98.30
2018-08-06T15:52:47.525Z,95.40
2018-08-06T15:54:49.759Z,97.80
2018-08-06T15:56:52.001Z,100.00
2018-08-06T15:58:54.181Z,98.62
2018-08-06T16:00:56.414Z,95.12
2018-08-06T16:02:58.664Z,94.25
2018-08-06T16:05:00.902Z,90.62
2018-08-06T16:07:03.111Z,94.05
2018-08-06T16:09:05.978Z,93.45
2018-08-06T16:11:08.199Z,88.42
2018-08-06T16:13:10.419Z,94.90
2018-08-06T16:15:12.622Z,93.03
2018-08-06T16:17:14.834Z,92.20
2018-08-06T16:19:17.089Z,96.10
2018-08-06T16:21:19.294Z,92.47
2018-08-06T16:23:21.533Z,94.58
2018-08-06T16:25:23.731Z,90.97
2018-08-06T16:27:25.941Z,88.52
2018-08-06T16:29:28.191Z,91.72
2018-08-06T16:31:30.412Z,93.50
2018-08-06T16:33:32.657Z,90.32
2018-08-06T16:35:34.858Z,91.10
2018-08-06T16:37:37.101Z,89.50
2018-08-06T16:39:39.328Z,87.45
2018-08-06T16:41:41.554Z,90.42
2018-08-06T16:43:43.786Z,89.20
2018-08-06T16:45:46.024Z,87.55
2018-08-06T16:47:48.273Z,87.62
2018-08-06T16:49:50.466Z,86.70
2018-08-06T16:51:52.656Z,88.87
2018-08-06T16:53:54.894Z,87.53
2018-08-06T16:55:57.104Z,89.30
2018-08-06T16:57:59.313Z,87.08
2018-08-06T17:00:01.546Z,84.80
2018-08-06T17:02:03.776Z,86.20
2018-08-06T17:04:05.972Z,85.60
2018-08-06T17:06:08.194Z,85.83
2018-08-06T17:08:10.432Z,86.08
2018-08-06T17:10:12.674Z,85.40
2018-08-06T17:12:14.926Z,84.55
2018-08-06T17:14:17.141Z,83.25
2018-08-06T17:16:19.353Z,82.97
2018-08-06T17:18:21.594Z,84.47
2018-08-06T17:20:23.795Z,84.22
2018-08-06T17:22:26.028Z,83.15
2018-08-06T17:24:28.242Z,85.15
2018-08-06T17:26:30.485Z,84.85
2018-08-06T17:28:32.701Z,81.78
2018-08-06T17:30:34.897Z,84.90
2018-08-06T17:32:37.135Z,81.67
2018-08-06T17:34:39.335Z,79.97
2018-08-06T17:36:41.565Z,81.00
2018-08-06T17:38:43.855Z,83.17
2018-08-06T17:40:46.033Z,83.30
2018-08-06T17:42:48.280Z,82.17
2018-08-06T17:44:50.469Z,80.87
2018-08-06T17:46:52.677Z,81.55
2018-08-06T17:48:54.885Z,81.47
2018-08-06T17:50:57.101Z,78.78
2018-08-06T17:52:59.308Z,79.87
2018-08-06T17:55:01.504Z,77.78
2018-08-06T17:57:03.736Z,79.10
2018-08-06T17:59:05.969Z,80.07
2018-08-06T18:01:08.210Z,78.60
2018-08-06T18:03:10.410Z,79.30
2018-08-06T18:05:12.623Z,80.92
2018-08-06T18:07:14.872Z,77.32
2018-08-06T18:09:17.073Z,78.05
2018-08-06T18:11:19.296Z,77.80
2018-08-06T18:13:21.534Z,73.25
2018-08-06T18:15:23.765Z,77.03
2018-08-06T18:17:25.978Z,78.75
2018-08-06T18:19:28.230Z,76.35
2018-08-06T18:21:30.439Z,78.35
2018-08-06T18:23:32.650Z,78.05
2018-08-06T18:25:34.884Z,77.32
2018-08-06T18:27:37.158Z,77.58
2018-08-06T18:29:39.288Z,76.25
2018-08-06T18:31:41.548Z,77.65
2018-08-06T18:33:43.786Z,76.60
2018-08-06T18:35:46.114Z,76.47
2018-08-06T18:37:48.351Z,75.72
2018-08-06T18:39:50.551Z,75.57
2018-08-06T18:41:52.803Z,72.62
2018-08-06T18:43:55.012Z,75.50
2018-08-06T18:45:57.215Z,76.07
2018-08-06T18:47:59.469Z,72.82
2018-08-06T18:50:01.707Z,73.15
2018-08-06T18:52:03.954Z,75.42
2018-08-06T18:54:06.161Z,73.92
2018-08-06T18:56:08.384Z,73.37
2018-08-06T18:58:10.613Z,75.00
2018-08-06T19:00:12.851Z,74.03
2018-08-06T19:02:15.107Z,71.67
2018-08-06T19:04:17.336Z,73.97
2018-08-06T19:06:19.537Z,72.20
2018-08-06T19:08:21.751Z,71.10
2018-08-06T19:10:23.995Z,74.55
2018-08-06T19:12:26.232Z,69.77
2018-08-06T19:14:28.452Z,72.60
2018-08-06T19:16:30.679Z,71.65
2018-08-06T19:18:32.896Z,69.55
2018-08-06T19:20:35.107Z,71.65
2018-08-06T19:22:37.338Z,68.17
2018-08-06T19:24:39.554Z,69.77
2018-08-06T19:26:41.820Z,68.75
2018-08-06T19:28:44.013Z,70.10
2018-08-06T19:30:46.256Z,72.45
2018-08-06T19:32:48.526Z,70.00
2018-08-06T19:34:50.787Z,70.80
2018-08-06T19:36:52.991Z,66.62
2018-08-06T19:38:55.176Z,68.30
2018-08-06T19:40:57.426Z,66.72
2018-08-06T19:42:59.625Z,65.37
2018-08-06T19:45:01.871Z,64.58
2018-08-06T19:47:04.114Z,66.10
2018-08-06T19:49:06.329Z,65.87
2018-08-06T19:51:08.544Z,66.28
2018-08-06T19:53:10.784Z,65.87
2018-08-06T19:55:12.996Z,66.62
2018-08-06T19:57:15.242Z,65.05
2018-08-06T19:59:17.474Z,65.47
2018-08-06T20:01:19.711Z,66.82
2018-08-06T20:03:21.960Z,64.82
2018-08-06T20:05:24.158Z,65.25
2018-08-06T20:07:26.391Z,63.75
2018-08-06T20:09:28.600Z,63.13
2018-08-06T20:11:30.832Z,61.88
2018-08-06T20:13:33.051Z,63.40
2018-08-06T20:15:35.303Z,63.65
2018-08-06T20:17:37.473Z,61.30
2018-08-06T20:19:39.720Z,63.38
2018-08-06T20:21:41.934Z,64.40
2018-08-06T20:23:44.146Z,63.63
2018-08-06T20:25:46.376Z,60.43
2018-08-06T20:27:48.596Z,61.15
2018-08-06T20:29:50.797Z,60.88
2018-08-06T20:31:53.046Z,63.52
2018-08-06T20:33:55.279Z,60.80
2018-08-06T20:35:57.507Z,62.95
2018-08-06T20:37:59.711Z,61.75
2018-08-06T20:40:01.961Z,61.60
2018-08-06T20:42:04.185Z,61.15
2018-08-06T20:44:06.419Z,61.73
2018-08-06T20:46:08.620Z,61.65
2018-08-06T20:48:10.879Z,61.30
2018-08-06T20:50:13.130Z,62.62
2018-08-06T20:52:15.333Z,62.03
2018-08-06T20:54:17.559Z,62.78
2018-08-06T20:56:19.788Z,59.73
2018-08-06T20:58:21.991Z,60.40
2018-08-06T21:00:24.237Z,60.35
2018-08-06T21:02:26.480Z,61.05
2018-08-06T21:04:28.659Z,57.55
2018-08-06T21:06:30.919Z,59.50
2018-08-06T21:08:33.118Z,59.93
2018-08-06T21:10:35.339Z,58.23
2018-08-06T21:12:37.576Z,59.20
2018-08-06T21:14:39.802Z,57.98
2018-08-06T21:16:42.045Z,59.18
2018-08-06T21:18:44.255Z,60.65
2018-08-06T21:20:46.457Z,56.85
2018-08-06T21:22:48.680Z,59.05
2018-08-06T21:24:50.907Z,57.83
2018-08-06T21:26:53.133Z,57.35
2018-08-06T21:28:55.336Z,56.13
2018-08-06T21:30:57.574Z,56.40
2018-08-06T21:32:59.802Z,56.58
2018-08-06T21:35:02.041Z,56.40
2018-08-06T21:37:04.260Z,56.73
2018-08-06T21:39:06.481Z,55.92
2018-08-06T21:41:08.712Z,55.17
2018-08-06T21:43:10.916Z,54.60
2018-08-06T21:45:13.147Z,54.65
2018-08-06T21:47:15.389Z,55.00
2018-08-06T21:49:17.609Z,53.38
2018-08-06T21:51:19.842Z,53.68
2018-08-06T21:53:22.057Z,54.73
2018-08-06T21:55:24.297Z,52.83
2018-08-06T21:57:26.533Z,51.90
2018-08-06T21:59:28.773Z,53.92
2018-08-06T22:01:31.009Z,51.85
2018-08-06T22:03:33.609Z,52.50
2018-08-06T22:05:35.830Z,54.05
2018-08-06T22:07:38.030Z,51.30
2018-08-06T22:09:40.261Z,51.80
2018-08-06T22:11:42.465Z,52.55
2018-08-06T22:13:44.725Z,52.27
2018-08-06T22:15:46.913Z,53.08
2018-08-06T22:17:49.117Z,53.23
2018-08-06T22:19:51.343Z,53.75
2018-08-06T22:21:53.549Z,51.98
2018-08-06T22:23:55.769Z,50.17
2018-08-06T22:25:58.023Z,52.85
2018-08-06T22:28:00.265Z,50.33
2018-08-06T22:30:02.500Z,51.95
2018-08-06T22:32:04.701Z,49.45
2018-08-06T22:34:06.956Z,50.12
2018-08-06T22:36:09.164Z,50.78
2018-08-06T22:38:11.371Z,51.60
2018-08-06T22:40:13.635Z,50.28
2018-08-06T22:42:15.794Z,50.55
2018-08-06T22:44:17.998Z,47.80
2018-08-06T22:46:20.227Z,50.25
2018-08-06T22:48:22.453Z,51.50
2018-08-06T22:50:24.662Z,47.55
2018-08-06T22:52:26.872Z,48.02
2018-08-06T22:54:29.101Z,48.75
2018-08-06T22:56:31.315Z,47.67
2018-08-06T22:58:33.516Z,47.75
2018-08-06T23:00:35.748Z,47.98
2018-08-06T23:02:37.970Z,46.60
2018-08-06T23:04:40.176Z,47.55
2018-08-06T23:06:42.404Z,46.53
2018-08-06T23:08:44.687Z,48.05
2018-08-06T23:10:46.851Z,48.52
2018-08-06T23:12:49.064Z,46.85
2018-08-06T23:14:51.307Z,46.60
2018-08-06T23:16:53.506Z,46.65
2018-08-06T23:18:55.724Z,46.28
2018-08-06T23:20:57.944Z,44.88
2018-08-06T23:23:00.159Z,46.53
2018-08-06T23:25:02.360Z,47.08
2018-08-06T23:27:04.602Z,46.63
2018-08-06T23:29:06.834Z,44.53
2018-08-06T23:31:09.041Z,44.55
2018-08-06T23:33:11.232Z,46.28
2018-08-06T23:35:13.470Z,42.83
2018-08-06T23:37:15.694Z,43.83
2018-08-06T23:39:17.914Z,45.60
2018-08-06T23:41:20.155Z,43.85
2018-08-06T23:43:22.338Z,43.08
2018-08-06T23:45:24.575Z,44.60
2018-08-06T23:47:26.787Z,43.13
2018-08-06T23:49:28.995Z,43.60
2018-08-06T23:51:31.219Z,44.10
2018-08-06T23:53:33.447Z,44.58
2018-08-06T23:55:35.683Z,43.00
2018-08-06T23:57:37.889Z,43.17
2018-08-06T23:59:40.125Z,43.08
